Time;durP1;ratioP1;P1;durP2;ratioP2;P2;SDS_P1;SDS_P2;PMS_P1;PMS_P2;Temp;Humidity;BMP_temperature;BMP_pressure;BME280_temperature;BME280_humidity;BME280_pressure;Samples;Min_cycle;Max_cycle;Signal;HPM_P1;HPM_P2
2022/11/13 08:48:16;;;;;;;6.25;1.90;;;;;;;20.01;55.91;101422.31;4986020;27;3130429;-51
2022/11/13 08:50:44;;;;;;;5.60;2.63;;;;;;;21.07;52.70;101418.16;5082577;28;20062;-51
2022/11/13 08:53:12;;;;;;;4.13;1.90;;;;;;;21.97;50.23;101411.34;5081518;28;20060;-50
2022/11/13 08:55:40;;;;;;;4.85;1.92;;;;;;;22.63;48.38;101405.25;5082917;28;20508;-52
2022/11/13 08:58:08;;;;;;;3.30;1.70;;;;;;;23.07;46.98;101405.47;5081427;28;20452;-50
2022/11/13 09:00:36;;;;;;;3.33;1.55;;;;;;;23.39;46.40;101404.50;5083548;28;20028;-50
2022/11/13 09:03:04;;;;;;;4.50;1.80;;;;;;;23.62;45.65;101402.38;5082770;28;20388;-53
2022/11/13 09:05:31;;;;;;;2.67;1.50;;;;;;;23.80;45.32;101399.25;5083966;28;20036;-52
2022/11/13 09:08:00;;;;;;;6.47;1.75;;;;;;;23.83;45.27;101404.56;5082410;28;20036;-51
2022/11/13 09:10:28;;;;;;;4.38;1.73;;;;;;;23.95;44.74;101409.16;5082780;28;20113;-50
2022/11/13 09:13:07;;;;;;;3.92;1.70;;;;;;;23.96;45.01;101403.06;5081680;28;20069;-49
2022/11/13 09:15:36;;;;;;;2.53;1.48;;;;;;;24.08;44.40;101390.22;5081839;28;20135;-49
2022/11/13 09:18:04;;;;;;;7.38;1.70;;;;;;;24.14;44.66;101391.22;5062615;28;20035;-47
2022/11/13 09:20:34;;;;;;;4.57;1.55;;;;;;;24.20;44.14;101386.97;5083055;28;20062;-48
2022/11/13 09:23:06;;;;;;;2.95;1.80;;;;;;;24.20;44.35;101384.34;5063628;28;20449;-52
2022/11/13 09:25:36;;;;;;;4.25;1.40;;;;;;;24.26;44.23;101387.06;5083062;28;20032;-51
2022/11/13 09:28:05;;;;;;;4.45;1.50;;;;;;;24.26;44.09;101386.19;5081383;28;20067;-51
2022/11/13 09:30:33;;;;;;;3.70;1.55;;;;;;;24.24;43.97;101370.41;5083248;28;20072;-50
2022/11/13 09:33:01;;;;;;;3.28;1.58;;;;;;;24.28;44.42;101366.13;5081214;28;20039;-50
2022/11/13 09:35:34;;;;;;;3.55;1.80;;;;;;;24.30;44.42;101369.66;5083082;28;20554;-50
2022/11/13 09:38:08;;;;;;;3.88;1.67;;;;;;;24.28;44.41;101371.38;5079641;28;20043;-47
2022/11/13 09:40:57;;;;;;;4.20;1.67;;;;;;;24.37;43.92;101389.03;5081929;28;20035;-51
2022/11/13 09:43:38;;;;;;;5.38;1.77;;;;;;;24.41;44.01;101383.84;5073050;28;21237;-52
2022/11/13 09:46:11;;;;;;;3.42;1.63;;;;;;;24.38;44.08;101377.69;5063166;28;20032;-47
2022/11/13 09:48:42;;;;;;;4.65;1.60;;;;;;;24.42;44.00;101382.09;5080766;28;20085;-47
2022/11/13 09:51:16;;;;;;;2.55;1.40;;;;;;;24.45;43.62;101382.16;5063563;28;20119;-47
2022/11/13 09:53:43;;;;;;;4.50;1.90;;;;;;;24.46;43.82;101373.44;5064503;28;20033;-47
2022/11/13 09:56:27;;;;;;;4.90;1.73;;;;;;;24.51;43.76;101373.50;5082339;28;20067;-47
2022/11/13 09:59:02;;;;;;;3.45;1.70;;;;;;;24.49;43.88;101364.75;5054701;28;20420;-49
2022/11/13 10:02:08;;;;;;;3.78;1.88;;;;;;;24.45;43.62;101368.16;5050158;28;20054;-49
2022/11/13 10:04:39;;;;;;;5.80;1.88;;;;;;;24.55;44.06;101364.84;5063038;28;20045;-54
2022/11/13 10:07:45;;;;;;;3.55;1.30;;;;;;;24.49;43.66;101362.13;5067573;28;20079;-52
2022/11/13 10:10:36;;;;;;;4.25;1.80;;;;;;;24.49;43.86;101352.50;5043670;28;20515;-55
2022/11/13 10:13:04;;;;;;;4.63;1.77;;;;;;;24.55;44.09;101368.38;5041806;28;20082;-52
2022/11/13 10:15:33;;;;;;;3.53;1.48;;;;;;;24.52;44.13;101364.78;5050218;28;20837;-47
2022/11/13 10:18:20;;;;;;;2.65;1.60;;;;;;;24.51;43.87;101352.53;5067580;28;20433;-51
2022/11/13 10:20:53;;;;;;;4.20;1.75;;;;;;;24.53;43.91;101366.56;5072287;28;20028;-51
2022/11/13 10:23:24;;;;;;;6.22;2.28;;;;;;;24.39;44.32;101361.09;5091240;28;20036;-54
2022/11/13 10:25:53;;;;;;;5.95;2.10;;;;;;;24.38;44.53;101364.56;5090564;28;20111;-49
2022/11/13 10:28:22;;;;;;;5.85;2.85;;;;;;;24.32;44.57;101359.19;5052435;28;20032;-51
2022/11/13 10:30:50;;;;;;;10.07;2.72;;;;;;;24.37;44.54;101358.41;5090745;28;20415;-52
2022/11/13 10:33:20;;;;;;;8.95;2.55;;;;;;;24.42;44.34;101361.13;5082574;28;20540;-48
2022/11/13 10:36:19;;;;;;;7.30;2.45;;;;;;;24.40;44.16;101352.38;5068925;28;20082;-47
2022/11/13 10:38:58;;;;;;;9.40;2.65;;;;;;;24.39;44.64;101356.72;5065889;28;20051;-52
2022/11/13 10:41:26;;;;;;;7.38;2.40;;;;;;;24.48;44.94;101355.13;5055137;28;20492;-50
2022/11/13 10:43:57;;;;;;;10.73;3.55;;;;;;;24.49;44.57;101352.50;5072950;28;20032;-50
2022/11/13 10:46:28;;;;;;;5.53;2.22;;;;;;;24.53;44.60;101348.19;5075356;28;20131;-48
2022/11/13 10:48:57;;;;;;;6.95;2.08;;;;;;;24.53;44.11;101345.56;5072928;28;20422;-51
2022/11/13 10:51:31;;;;;;;8.93;3.45;;;;;;;24.46;44.72;101348.97;5093374;28;20044;-53
2022/11/13 10:54:00;;;;;;;8.15;2.65;;;;;;;24.50;44.87;101348.13;5075913;28;20032;-51
2022/11/13 10:56:31;;;;;;;6.78;2.25;;;;;;;24.48;44.84;101342.88;5094278;28;20052;-51
2022/11/13 10:59:01;;;;;;;7.15;2.70;;;;;;;24.50;44.55;101348.13;5093728;28;20042;-53
2022/11/13 11:01:30;;;;;;;8.32;2.90;;;;;;;24.45;44.61;101320.97;5093606;28;20035;-50
2022/11/13 11:03:59;;;;;;;10.05;2.90;;;;;;;24.51;44.63;101334.16;5093762;28;20008;-51
2022/11/13 11:06:37;;;;;;;9.65;3.17;;;;;;;24.50;44.72;101322.81;5093923;28;20024;-50
2022/11/13 11:09:21;;;;;;;6.57;2.63;;;;;;;24.60;44.31;101315.97;5093438;28;20032;-51
2022/11/13 11:12:16;;;;;;;7.38;2.38;;;;;;;24.68;44.35;101316.09;5075839;28;20046;-50
2022/11/13 11:14:45;;;;;;;8.48;2.92;;;;;;;24.64;44.26;101323.03;5093475;28;20034;-54
2022/11/13 11:17:15;;;;;;;6.30;1.92;;;;;;;24.65;44.27;101322.19;5093383;28;20427;-53
2022/11/13 11:19:47;;;;;;;10.57;2.95;;;;;;;24.70;44.25;101324.91;5075933;28;20020;-52
2022/11/13 11:22:18;;;;;;;6.78;2.72;;;;;;;24.64;44.23;101320.41;5058504;28;20024;-50
2022/11/13 11:24:56;;;;;;;5.00;2.10;;;;;;;24.61;44.40;101317.75;5075333;28;20032;-49
2022/11/13 11:27:34;;;;;;;10.05;2.97;;;;;;;24.57;44.77;101310.66;5075604;28;20388;-47
2022/11/13 11:30:13;;;;;;;9.43;2.63;;;;;;;24.61;44.51;101306.34;5069628;28;20066;-47
2022/11/13 11:32:43;;;;;;;4.70;2.40;;;;;;;24.52;44.39;101300.13;5048851;28;20031;-51
2022/11/13 11:35:20;;;;;;;7.03;2.35;;;;;;;24.42;44.64;101285.06;5089091;28;20123;-48
2022/11/13 11:38:08;;;;;;;7.82;2.58;;;;;;;24.47;44.78;101280.78;5071693;28;20020;-50
2022/11/13 11:40:40;;;;;;;6.13;2.30;;;;;;;24.45;44.84;101285.13;5063027;28;20061;-48
2022/11/13 11:43:42;;;;;;;11.45;2.70;;;;;;;24.45;44.88;101298.22;5068840;28;20028;-47
2022/11/13 11:46:12;;;;;;;7.30;2.20;;;;;;;24.52;44.93;101283.47;5050663;28;20123;-47
2022/11/13 11:48:40;;;;;;;8.18;2.55;;;;;;;24.50;45.04;101274.69;5071617;28;20039;-47
2022/11/13 11:51:27;;;;;;;8.50;2.50;;;;;;;24.42;44.94;101285.06;5069687;28;21374;-47
2022/11/13 11:54:12;;;;;;;5.72;2.67;;;;;;;24.42;44.90;101285.97;5061097;28;20045;-48
2022/11/13 11:56:48;;;;;;;8.75;3.00;;;;;;;24.41;44.99;101286.81;5071356;28;20029;-52
2022/11/13 11:59:17;;;;;;;4.68;2.15;;;;;;;24.46;44.81;101279.03;5080394;28;20081;-54
2022/11/13 12:02:22;;;;;;;7.50;2.90;;;;;;;24.43;44.90;101277.25;5082272;28;20024;-49
2022/11/13 12:05:07;;;;;;;8.38;2.53;;;;;;;24.44;45.16;101278.13;5061785;28;20029;-51
2022/11/13 12:08:00;;;;;;;8.20;2.13;;;;;;;24.55;45.21;101273.03;5083065;28;20145;-49
2022/11/13 12:10:51;;;;;;;8.93;2.97;;;;;;;24.55;45.39;101271.31;5050791;28;20102;-51
2022/11/13 12:13:22;;;;;;;9.48;3.13;;;;;;;24.61;45.31;101264.38;5037976;28;20385;-50
2022/11/13 12:15:57;;;;;;;9.07;3.17;;;;;;;24.61;45.35;101272.25;5070745;28;20019;-49
2022/11/13 12:19:03;;;;;;;10.35;3.22;;;;;;;24.57;45.37;101266.94;5088928;28;20028;-48
2022/11/13 12:21:50;;;;;;;11.35;3.47;;;;;;;24.60;45.24;101268.75;5066767;28;20040;-49
2022/11/13 12:24:37;;;;;;;12.63;3.47;;;;;;;24.70;45.08;101257.56;5070449;28;20035;-50
2022/11/13 12:27:28;;;;;;;12.93;2.97;;;;;;;24.64;45.37;101257.47;5062114;28;20032;-52
2022/11/13 12:30:14;;;;;;;13.50;3.78;;;;;;;24.66;45.06;101262.72;5055407;28;20032;-51
2022/11/13 12:33:20;;;;;;;9.05;2.92;;;;;;;24.62;45.42;101253.94;5049444;28;20043;-51
2022/11/13 12:35:50;;;;;;;15.55;2.95;;;;;;;24.67;45.04;101252.22;5058864;28;20075;-54
2022/11/13 12:38:24;;;;;;;11.88;3.05;;;;;;;24.67;45.33;101243.50;5070687;28;20107;-54
2022/11/13 12:41:15;;;;;;;16.55;3.65;;;;;;;24.66;45.42;101237.34;5078059;28;20032;-51
2022/11/13 12:44:09;;;;;;;8.27;3.42;;;;;;;24.64;45.76;101232.94;5047569;28;20639;-49
2022/11/13 12:46:40;;;;;;;12.70;3.88;;;;;;;24.68;45.34;101234.78;5061332;28;20076;-48
2022/11/13 12:49:30;;;;;;;9.38;3.08;;;;;;;24.63;45.22;101234.72;5070552;28;20033;-53
2022/11/13 12:52:20;;;;;;;11.27;3.55;;;;;;;24.63;45.57;101225.94;5086558;28;20032;-50
2022/11/13 12:54:48;;;;;;;17.27;4.07;;;;;;;24.70;45.64;101235.72;5063688;28;20115;-53
2022/11/13 12:57:21;;;;;;;15.23;4.22;;;;;;;24.70;45.72;101223.47;5070639;28;20511;-48
2022/11/13 12:59:54;;;;;;;12.07;3.67;;;;;;;24.72;45.43;101220.88;5070964;28;20106;-48
2022/11/13 13:02:22;;;;;;;11.20;3.22;;;;;;;24.73;45.34;101228.75;5070333;28;20025;-53
2022/11/13 13:05:03;;;;;;;9.40;3.17;;;;;;;24.65;45.54;101219.88;5070464;28;20024;-51
2022/11/13 13:07:54;;;;;;;11.45;3.67;;;;;;;24.65;45.70;101217.25;5070733;28;20428;-47
2022/11/13 13:10:27;;;;;;;9.68;3.67;;;;;;;24.69;45.89;101216.41;5043063;28;20071;-48
2022/11/13 13:13:24;;;;;;;12.63;4.00;;;;;;;24.67;45.80;101215.50;5052030;28;20023;-50
2022/11/13 13:16:03;;;;;;;7.47;2.67;;;;;;;24.68;45.59;101213.78;5064107;28;20470;-50
2022/11/13 13:18:34;;;;;;;13.63;3.53;;;;;;;24.74;45.81;101213.88;5070506;28;20029;-53
2022/11/13 13:21:09;;;;;;;14.27;3.72;;;;;;;24.70;45.64;101210.34;5065477;28;20035;-47
2022/11/13 13:23:38;;;;;;;;;;;;;;;24.72;45.68;101207.75;5071008;28;20020;-48
2022/11/13 13:26:17;;;;;;;9.15;3.03;;;;;;;24.60;45.66;101182.19;5075836;28;19912;-48
2022/11/13 13:28:56;;;;;;;11.23;3.75;;;;;;;24.73;45.25;101194.66;5088229;28;20059;-48
2022/11/13 13:31:28;;;;;;;13.63;3.97;;;;;;;24.73;45.71;101199.91;5069819;28;20086;-50
2022/11/13 13:34:29;;;;;;;11.00;3.40;;;;;;;24.72;45.58;101195.50;5074501;28;20086;-50
2022/11/13 13:37:16;;;;;;;9.52;3.28;;;;;;;24.80;45.44;101194.75;5087836;28;20036;-47
2022/11/13 13:40:03;;;;;;;12.05;4.05;;;;;;;24.76;45.66;101191.16;5079719;28;20035;-46
2022/11/13 13:42:39;;;;;;;10.85;4.03;;;;;;;24.78;45.61;101193.84;5075923;28;20155;-47
2022/11/13 13:45:30;;;;;;;9.30;3.05;;;;;;;24.75;45.81;101191.16;5091247;28;20028;-47
2022/11/13 13:47:59;;;;;;;13.15;3.33;;;;;;;24.78;45.61;101196.47;5090863;28;20055;-48
2022/11/13 13:50:32;;;;;;;13.77;4.13;;;;;;;24.76;45.54;101188.53;5054014;28;20114;-49
2022/11/13 13:53:01;;;;;;;9.63;3.38;;;;;;;24.73;45.67;101173.66;5089940;28;20046;-47
2022/11/13 13:55:36;;;;;;;18.42;3.58;;;;;;;24.71;45.77;101185.88;5090975;28;20021;-52
2022/11/13 13:58:09;;;;;;;11.88;2.90;;;;;;;24.69;45.57;101179.69;5056061;28;20040;-52
2022/11/13 14:00:37;;;;;;;12.82;3.78;;;;;;;24.74;45.50;101182.41;5079087;28;20056;-49
2022/11/13 14:03:21;;;;;;;11.27;3.50;;;;;;;24.68;45.71;101179.69;5069591;28;20029;-51
2022/11/13 14:05:50;;;;;;;12.27;3.75;;;;;;;24.70;45.83;101184.09;5055952;28;20024;-49
2022/11/13 14:08:20;;;;;;;12.77;4.28;;;;;;;24.67;45.70;101183.16;5069429;28;20035;-53
2022/11/13 14:10:49;;;;;;;12.93;3.88;;;;;;;24.65;45.89;101180.53;5071801;28;20505;-49
2022/11/13 14:13:28;;;;;;;17.50;3.95;;;;;;;24.64;45.65;101176.16;5055631;28;20029;-52
2022/11/13 14:16:02;;;;;;;12.73;3.28;;;;;;;24.67;45.64;101175.28;5084605;28;20119;-49
2022/11/13 14:18:30;;;;;;;12.88;3.30;;;;;;;24.64;45.55;101168.28;5081613;28;20427;-51
2022/11/13 14:21:01;;;;;;;11.30;3.58;;;;;;;24.64;45.44;101172.63;5067682;28;20029;-51
2022/11/13 14:23:36;;;;;;;12.55;2.85;;;;;;;24.60;45.61;101165.56;5073319;28;20075;-49
2022/11/13 14:26:05;;;;;;;9.10;3.10;;;;;;;24.74;45.25;101174.53;5055365;28;20037;-47
2022/11/13 14:28:42;;;;;;;8.77;2.90;;;;;;;24.71;45.26;101162.25;5066338;28;20081;-51
2022/11/13 14:31:12;;;;;;;11.35;3.53;;;;;;;24.67;45.61;101152.53;5089133;28;20028;-51
2022/11/13 14:33:44;;;;;;;12.48;3.60;;;;;;;24.66;45.40;101156.03;5069279;28;20389;-49
2022/11/13 14:36:13;;;;;;;10.45;3.30;;;;;;;24.71;45.54;101151.78;5065302;28;20024;-47
2022/11/13 14:38:44;;;;;;;8.45;3.30;;;;;;;24.68;45.60;101153.44;5090455;28;20027;-54
2022/11/13 14:41:21;;;;;;;15.38;3.55;;;;;;;24.64;45.59;101134.16;5076827;28;20048;-47
2022/11/13 14:43:52;;;;;;;6.07;2.53;;;;;;;24.64;45.57;101141.16;5055546;28;20103;-48
2022/11/13 14:46:43;;;;;;;8.93;3.22;;;;;;;24.53;45.53;101123.53;5069807;28;20049;-52
2022/11/13 14:49:31;;;;;;;11.35;3.50;;;;;;;24.60;45.30;101129.75;5061513;28;20020;-49
2022/11/13 14:52:00;;;;;;;8.73;2.55;;;;;;;24.65;45.33;101140.28;5075487;28;20031;-50
2022/11/13 14:54:34;;;;;;;11.77;2.80;;;;;;;24.66;45.74;101137.66;5091126;28;20039;-50
2022/11/13 14:57:14;;;;;;;18.33;4.28;;;;;;;24.78;45.27;101133.50;5072777;28;20115;-52
2022/11/13 14:59:43;;;;;;;14.85;3.08;;;;;;;24.73;45.20;101141.31;5050505;28;20107;-48
2022/11/13 15:02:13;;;;;;;10.95;3.10;;;;;;;24.67;45.52;101134.19;5064039;28;20077;-47
2022/11/13 15:04:41;;;;;;;9.80;2.60;;;;;;;24.63;45.66;101134.13;5080559;28;20031;-50
2022/11/13 15:07:29;;;;;;;8.93;2.90;;;;;;;24.60;45.79;101131.47;5054618;28;20378;-47
2022/11/13 15:09:58;;;;;;;13.90;4.25;;;;;;;24.65;45.67;101140.28;5063547;28;20040;-48
2022/11/13 15:12:27;;;;;;;11.70;3.22;;;;;;;24.64;45.41;101146.38;5071586;28;20033;-50
2022/11/13 15:14:55;;;;;;;13.65;3.88;;;;;;;24.61;45.52;101133.22;5072190;28;20033;-47
2022/11/13 15:17:23;;;;;;;12.13;3.25;;;;;;;24.62;45.41;101129.75;5079338;28;20031;-50
2022/11/13 15:19:53;;;;;;;8.80;2.83;;;;;;;24.68;45.34;101135.09;5088762;28;20081;-51
2022/11/13 15:22:22;;;;;;;6.85;2.47;;;;;;;24.67;45.13;101134.19;5075857;28;20432;-48
2022/11/13 15:24:50;;;;;;;10.85;2.72;;;;;;;24.66;45.16;101135.03;5061285;28;20028;-48
2022/11/13 15:27:19;;;;;;;8.90;3.10;;;;;;;24.69;45.07;101126.34;5072138;28;20040;-52
2022/11/13 15:29:47;;;;;;;6.50;2.42;;;;;;;24.72;44.84;101121.19;5071001;28;20025;-48
2022/11/13 15:32:15;;;;;;;10.15;3.05;;;;;;;24.69;45.16;101116.72;5070972;28;20028;-49
2022/11/13 15:34:44;;;;;;;9.07;2.67;;;;;;;24.68;44.96;101121.97;5067402;28;20439;-48
2022/11/13 15:37:13;;;;;;;7.63;2.58;;;;;;;24.69;45.11;101116.72;5071431;28;20659;-48
2022/11/13 15:39:41;;;;;;;10.57;3.05;;;;;;;24.65;45.08;101112.31;5070774;28;20052;-49
2022/11/13 15:42:13;;;;;;;12.00;2.97;;;;;;;24.66;45.23;101115.81;5087978;28;20400;-48
2022/11/13 15:44:40;;;;;;;10.82;3.08;;;;;;;24.68;44.74;101101.84;5071425;28;20028;-47
2022/11/13 15:47:30;;;;;;;10.77;2.40;;;;;;;24.69;45.19;101093.13;5089081;28;20071;-48
2022/11/13 15:49:58;;;;;;;10.50;2.55;;;;;;;24.72;45.11;101094.94;5079197;28;20391;-46
2022/11/13 15:52:29;;;;;;;9.60;2.63;;;;;;;24.71;44.85;101101.91;5088642;28;20024;-48
2022/11/13 15:54:57;;;;;;;9.75;2.55;;;;;;;24.73;44.96;101099.34;5069954;28;20376;-50
2022/11/13 15:57:27;;;;;;;9.93;2.78;;;;;;;24.73;44.87;101097.59;5071360;28;20032;-49
2022/11/13 15:59:54;;;;;;;6.30;2.20;;;;;;;24.72;44.83;101102.81;5077246;28;20480;-47
2022/11/13 16:02:21;;;;;;;6.63;2.58;;;;;;;24.70;44.82;101104.53;5088452;28;20396;-49
2022/11/13 16:04:52;;;;;;;7.53;2.72;;;;;;;24.71;44.82;101108.94;5070890;28;20034;-54
2022/11/13 16:07:25;;;;;;;6.97;2.40;;;;;;;24.69;44.85;101106.22;5088578;28;20031;-46
2022/11/13 16:09:52;;;;;;;9.48;2.50;;;;;;;24.66;44.77;101105.31;5048457;28;20016;-47
2022/11/13 16:12:19;;;;;;;5.50;1.90;;;;;;;24.66;45.03;101100.94;5052543;28;20064;-52
2022/11/13 16:14:46;;;;;;;10.48;2.50;;;;;;;24.70;45.01;101112.41;5070867;28;20541;-49
2022/11/13 16:17:18;;;;;;;10.25;2.67;;;;;;;24.71;45.06;101117.66;5071282;28;20017;-50
2022/11/13 16:19:48;;;;;;;7.78;2.20;;;;;;;24.72;44.82;101115.94;5070511;28;20021;-50
2022/11/13 16:22:21;;;;;;;10.48;2.70;;;;;;;24.55;45.05;101089.44;5070677;28;20021;-48
2022/11/13 16:24:49;;;;;;;7.10;2.67;;;;;;;24.55;44.95;101097.31;5088382;28;20028;-47
2022/11/13 16:27:28;;;;;;;7.53;3.25;;;;;;;24.72;44.65;101123.81;5088730;28;20028;-48
2022/11/13 16:29:57;;;;;;;8.75;2.83;;;;;;;24.70;44.87;101117.66;5082454;28;20036;-52
2022/11/13 16:32:25;;;;;;;7.40;2.88;;;;;;;24.71;44.94;101114.19;5070076;28;20028;-48
2022/11/13 16:34:53;;;;;;;7.20;2.30;;;;;;;24.71;44.87;101115.03;5070732;28;20068;-48
2022/11/13 16:37:23;;;;;;;6.80;2.13;;;;;;;24.71;44.73;101120.28;5070754;28;20028;-47
2022/11/13 16:39:51;;;;;;;8.48;2.50;;;;;;;24.68;44.96;101114.09;5065754;28;20025;-48
2022/11/13 16:42:19;;;;;;;9.63;2.90;;;;;;;24.49;44.52;101078.91;5070383;28;20036;-51
2022/11/13 16:44:47;;;;;;;6.50;2.47;;;;;;;24.68;44.95;101112.34;5070467;28;20024;-47
2022/11/13 16:47:22;;;;;;;8.60;3.08;;;;;;;24.67;44.83;101110.56;5048165;28;20060;-50
2022/11/13 16:49:51;;;;;;;12.15;2.63;;;;;;;24.68;44.94;101109.72;5050946;28;20522;-48
2022/11/13 16:52:18;;;;;;;7.18;2.95;;;;;;;24.72;44.55;101102.81;5067157;28;20136;-50
2022/11/13 16:54:46;;;;;;;9.38;3.20;;;;;;;24.72;44.29;101101.06;5051475;28;20024;-49
2022/11/13 16:57:15;;;;;;;6.90;2.70;;;;;;;24.71;44.47;101098.44;5051162;28;20523;-47
2022/11/13 16:59:44;;;;;;;6.22;2.30;;;;;;;24.66;44.68;101100.06;5048519;28;20065;-52
2022/11/13 17:02:16;;;;;;;8.65;2.38;;;;;;;24.62;45.03;101100.91;5049916;28;20025;-53
2022/11/13 17:04:45;;;;;;;11.57;2.40;;;;;;;24.66;44.92;101089.59;5069204;28;20029;-52
2022/11/13 17:07:14;;;;;;;9.20;2.65;;;;;;;24.52;44.71;101071.03;5063810;28;20075;-47
2022/11/13 17:09:43;;;;;;;7.20;2.08;;;;;;;24.65;44.59;101093.97;5054653;28;20175;-50
2022/11/13 17:12:11;;;;;;;11.10;2.97;;;;;;;24.60;44.99;101085.16;5065829;28;20021;-47
2022/11/13 17:14:40;;;;;;;6.05;2.38;;;;;;;24.69;44.54;101094.88;5072295;28;20431;-49
2022/11/13 17:17:13;;;;;;;11.10;2.45;;;;;;;24.63;44.85;101095.69;5071862;28;20021;-52
2022/11/13 17:19:43;;;;;;;5.85;2.15;;;;;;;24.65;44.77;101101.84;5065305;28;20386;-49
2022/11/13 17:22:12;;;;;;;11.57;2.90;;;;;;;24.57;45.09;101095.59;5071285;28;20028;-49
2022/11/13 17:24:41;;;;;;;9.55;2.72;;;;;;;24.61;45.36;101097.41;5054998;28;20425;-47
2022/11/13 17:27:10;;;;;;;11.05;2.67;;;;;;;24.56;45.10;101085.97;5054748;28;20040;-51
2022/11/13 17:29:38;;;;;;;10.93;3.30;;;;;;;24.61;45.32;101094.78;5067846;28;20060;-53
2022/11/13 17:32:06;;;;;;;5.97;2.42;;;;;;;24.62;45.00;101096.53;5063992;28;20077;-47
2022/11/13 17:34:33;;;;;;;9.80;2.85;;;;;;;24.60;44.86;101094.75;5072757;28;20017;-47
2022/11/13 17:37:01;;;;;;;12.23;2.90;;;;;;;24.63;44.73;101092.16;5059875;28;20378;-47
2022/11/13 17:39:28;;;;;;;8.20;2.65;;;;;;;24.60;44.91;101098.25;5057997;28;20496;-47
2022/11/13 17:41:55;;;;;;;11.82;2.92;;;;;;;24.62;45.08;101096.53;5066111;28;20029;-49
2022/11/13 17:44:24;;;;;;;9.00;2.67;;;;;;;24.62;44.96;101103.50;5065709;28;20036;-47
2022/11/13 17:46:52;;;;;;;6.50;2.45;;;;;;;24.58;45.15;101103.47;5077230;28;20048;-50
2022/11/13 17:49:20;;;;;;;9.27;3.17;;;;;;;24.58;44.78;101102.59;5078150;28;20035;-46
2022/11/13 17:51:47;;;;;;;9.63;2.80;;;;;;;24.55;44.95;101106.09;5089627;28;20515;-47
2022/11/13 17:54:15;;;;;;;10.20;2.47;;;;;;;24.57;45.15;101104.34;5088183;28;20040;-47
2022/11/13 17:56:44;;;;;;;8.23;2.75;;;;;;;24.56;44.80;101101.69;5078821;28;20089;-51
2022/11/13 17:59:12;;;;;;;8.18;2.60;;;;;;;24.55;45.10;101107.81;5084517;28;20040;-48
2022/11/13 18:01:40;;;;;;;10.10;3.15;;;;;;;24.43;44.70;101075.34;5088095;28;20476;-51
2022/11/13 18:04:07;;;;;;;11.88;3.28;;;;;;;24.64;44.76;101100.06;5074646;28;20452;-53
2022/11/13 18:06:35;;;;;;;11.00;3.10;;;;;;;24.63;45.03;101105.28;5091724;28;20099;-48
2022/11/13 18:09:03;;;;;;;10.02;3.00;;;;;;;24.63;45.08;101102.66;5078969;28;20493;-50
2022/11/13 18:11:31;;;;;;;7.22;2.20;;;;;;;24.63;44.65;101098.31;5082614;28;20016;-49
2022/11/13 18:14:00;;;;;;;9.35;2.13;;;;;;;24.65;44.75;101101.84;5055574;28;20078;-46
2022/11/13 18:16:33;;;;;;;6.72;2.38;;;;;;;24.64;44.43;101089.59;5079843;28;20019;-50
2022/11/13 18:19:02;;;;;;;10.15;2.65;;;;;;;24.64;44.58;101092.19;5078282;28;20044;-49
2022/11/13 18:21:31;;;;;;;10.32;2.80;;;;;;;24.65;44.81;101096.59;5090824;28;20481;-47
2022/11/13 18:24:00;;;;;;;10.45;3.15;;;;;;;24.64;44.71;101096.56;5075450;28;20477;-49
2022/11/13 18:26:29;;;;;;;9.30;2.38;;;;;;;24.64;44.88;101096.56;5091840;28;20027;-53
2022/11/13 18:28:57;;;;;;;14.27;3.58;;;;;;;24.64;44.93;101107.94;5081298;28;20035;-49
2022/11/13 18:31:25;;;;;;;11.60;3.15;;;;;;;24.59;44.82;101101.75;5057639;28;20020;-50
2022/11/13 18:33:53;;;;;;;7.20;1.90;;;;;;;24.60;44.63;101107.84;5080302;28;20040;-46
2022/11/13 18:36:22;;;;;;;9.80;2.80;;;;;;;24.57;45.05;101104.34;5073250;28;20074;-46
2022/11/13 18:38:50;;;;;;;7.05;2.75;;;;;;;24.58;44.99;101111.34;5075995;28;20057;-50
2022/11/13 18:41:20;;;;;;;7.57;2.75;;;;;;;24.59;44.74;101107.00;5090079;28;20020;-46
2022/11/13 18:43:49;;;;;;;9.82;3.03;;;;;;;24.60;44.94;101105.25;5079541;28;20108;-46
2022/11/13 18:46:18;;;;;;;12.13;3.85;;;;;;;24.61;44.86;101102.66;5072685;28;20033;-51
2022/11/13 18:48:48;;;;;;;19.27;6.03;;;;;;;24.61;44.78;101101.75;5058933;28;20081;-48
2022/11/13 18:51:17;;;;;;;21.05;8.52;;;;;;;24.64;44.45;101107.94;5059726;28;20024;-48
2022/11/13 18:53:48;;;;;;;27.05;10.30;;;;;;;24.65;44.90;101093.97;5059805;28;20040;-50
2022/11/13 18:56:22;;;;;;;31.85;11.48;;;;;;;24.55;44.90;101082.47;5058628;28;20028;-47
2022/11/13 18:58:51;;;;;;;26.60;11.00;;;;;;;24.72;44.87;101098.44;5059553;28;20032;-48
2022/11/13 19:01:21;;;;;;;28.83;11.02;;;;;;;24.73;44.76;101094.09;5094117;28;20024;-47
2022/11/13 19:03:50;;;;;;;30.98;10.60;;;;;;;24.77;44.96;101095.88;5093920;28;20427;-51
2022/11/13 19:06:21;;;;;;;25.95;10.20;;;;;;;24.72;44.98;101093.19;5093979;28;20027;-50
2022/11/13 19:08:55;;;;;;;26.55;9.43;;;;;;;24.68;45.53;101078.25;5076045;28;20534;-52
2022/11/13 19:11:25;;;;;;;25.15;9.15;;;;;;;24.72;45.35;101080.06;5075862;28;20075;-48
2022/11/13 19:13:52;;;;;;;22.50;8.90;;;;;;;24.75;45.51;101083.59;5093997;28;20028;-53
2022/11/13 19:16:23;;;;;;;26.13;8.32;;;;;;;24.73;45.41;101081.84;5093834;28;20047;-47
2022/11/13 19:18:55;;;;;;;27.15;7.90;;;;;;;24.70;45.62;101081.78;5093324;28;20024;-46
2022/11/13 19:21:25;;;;;;;20.25;8.32;;;;;;;24.72;45.43;101080.06;5093708;28;20024;-49
2022/11/13 19:23:54;;;;;;;28.23;8.07;;;;;;;24.76;45.51;101085.38;5093705;28;20024;-49
2022/11/13 19:26:23;;;;;;;24.88;8.00;;;;;;;24.75;45.50;101078.34;5093546;28;20497;-48
2022/11/13 19:28:52;;;;;;;23.77;7.20;;;;;;;24.73;45.51;101081.84;5094003;28;20423;-48
2022/11/13 19:31:23;;;;;;;19.00;6.85;;;;;;;24.56;45.37;101050.16;5092697;28;20028;-46
2022/11/13 19:33:57;;;;;;;21.23;7.13;;;;;;;24.71;45.45;101074.81;5094002;28;20031;-51
2022/11/13 19:36:27;;;;;;;18.23;6.28;;;;;;;24.75;45.25;101080.97;5093302;28;20441;-50
2022/11/13 19:38:56;;;;;;;21.98;6.70;;;;;;;24.76;45.86;101080.13;5093479;28;20028;-47
2022/11/13 19:41:25;;;;;;;17.17;6.18;;;;;;;24.76;45.76;101070.50;5075318;28;20024;-46
2022/11/13 19:43:54;;;;;;;14.50;5.65;;;;;;;24.77;45.33;101074.00;5093617;28;20032;-46
2022/11/13 19:46:23;;;;;;;13.20;5.45;;;;;;;24.75;45.57;101076.59;5075510;28;20024;-46
2022/11/13 19:48:53;;;;;;;23.65;6.45;;;;;;;24.76;45.31;101072.25;5093094;28;20386;-46
2022/11/13 19:51:24;;;;;;;12.68;4.30;;;;;;;24.73;45.35;101068.72;5093452;28;20024;-48
2022/11/13 19:53:58;;;;;;;16.25;4.93;;;;;;;24.70;45.37;101063.44;5093651;28;20496;-46
2022/11/13 19:56:28;;;;;;;16.30;5.05;;;;;;;24.70;45.40;101063.44;5093087;28;20032;-47
2022/11/13 19:58:57;;;;;;;14.38;4.72;;;;;;;24.71;45.43;101059.09;5093314;28;20081;-53
2022/11/13 20:01:27;;;;;;;16.33;5.38;;;;;;;24.63;45.38;101051.09;5092954;28;20077;-51
2022/11/13 20:03:58;;;;;;;19.30;5.63;;;;;;;24.71;45.16;101070.44;5075301;28;20028;-53
2022/11/13 20:06:28;;;;;;;11.73;5.10;;;;;;;24.70;45.47;101066.06;5092815;28;20024;-50
2022/11/13 20:08:57;;;;;;;10.32;4.20;;;;;;;24.69;45.41;101066.03;5092833;28;20028;-50
2022/11/13 20:11:26;;;;;;;15.05;4.63;;;;;;;24.68;45.53;101054.63;5092879;28;20035;-50
2022/11/13 20:13:56;;;;;;;12.70;4.22;;;;;;;24.65;45.54;101054.63;5074807;28;20030;-51
2022/11/13 20:16:24;;;;;;;13.45;4.72;;;;;;;24.70;45.33;101057.31;5092842;28;20495;-49
2022/11/13 20:18:56;;;;;;;12.02;4.13;;;;;;;24.69;45.22;101055.53;5092443;28;20468;-50
2022/11/13 20:21:26;;;;;;;9.93;3.67;;;;;;;24.70;45.25;101052.94;5092707;28;20024;-48
2022/11/13 20:23:57;;;;;;;10.60;4.60;;;;;;;24.72;45.33;101050.34;5092821;28;20040;-50
